sensor_id;sensor_type;location;lat;lon;timestamp;pressure;altitude;pressure_sealevel;temperature
45701;BMP280;36277;32.852;-116.998;2022-10-31T00:02:15;99773.78;;;25.75
45701;BMP280;36277;32.852;-116.998;2022-10-31T00:04:41;99778.25;;;25.76
45701;BMP280;36277;32.852;-116.998;2022-10-31T00:07:08;99773.41;;;26.11
45701;BMP280;36277;32.852;-116.998;2022-10-31T00:09:34;99773.34;;;26.37
45701;BMP280;36277;32.852;-116.998;2022-10-31T00:12:00;99775.03;;;26.50
45701;BMP280;36277;32.852;-116.998;2022-10-31T00:14:26;99772.03;;;26.52
45701;BMP280;36277;32.852;-116.998;2022-10-31T00:16:53;99766.94;;;26.36
45701;BMP280;36277;32.852;-116.998;2022-10-31T00:19:19;99781.50;;;25.86
45701;BMP280;36277;32.852;-116.998;2022-10-31T00:21:45;99773.78;;;25.49
45701;BMP280;36277;32.852;-116.998;2022-10-31T00:24:11;99774.88;;;25.48
45701;BMP280;36277;32.852;-116.998;2022-10-31T00:26:38;99776.81;;;25.93
45701;BMP280;36277;32.852;-116.998;2022-10-31T00:29:04;99770.41;;;26.12
45701;BMP280;36277;32.852;-116.998;2022-10-31T00:31:30;99771.00;;;26.27
45701;BMP280;36277;32.852;-116.998;2022-10-31T00:33:57;99772.69;;;26.28
45701;BMP280;36277;32.852;-116.998;2022-10-31T00:36:23;99763.97;;;26.31
45701;BMP280;36277;32.852;-116.998;2022-10-31T00:38:50;99768.69;;;26.11
45701;BMP280;36277;32.852;-116.998;2022-10-31T00:41:17;99771.66;;;25.77
45701;BMP280;36277;32.852;-116.998;2022-10-31T00:43:44;99773.16;;;25.67
45701;BMP280;36277;32.852;-116.998;2022-10-31T00:46:11;99774.44;;;25.77
45701;BMP280;36277;32.852;-116.998;2022-10-31T00:48:38;99785.28;;;26.11
45701;BMP280;36277;32.852;-116.998;2022-10-31T00:51:04;99783.34;;;26.25
45701;BMP280;36277;32.852;-116.998;2022-10-31T00:53:31;99780.56;;;26.38
45701;BMP280;36277;32.852;-116.998;2022-10-31T00:55:57;99788.88;;;26.44
45701;BMP280;36277;32.852;-116.998;2022-10-31T00:58:23;99789.91;;;26.62
45701;BMP280;36277;32.852;-116.998;2022-10-31T01:00:50;99786.84;;;26.77
45701;BMP280;36277;32.852;-116.998;2022-10-31T01:03:29;99796.31;;;26.56
45701;BMP280;36277;32.852;-116.998;2022-10-31T01:06:09;99798.03;;;26.19
45701;BMP280;36277;32.852;-116.998;2022-10-31T01:08:37;99804.88;;;25.90
45701;BMP280;36277;32.852;-116.998;2022-10-31T01:11:05;99812.06;;;25.78
45701;BMP280;36277;32.852;-116.998;2022-10-31T01:13:32;99799.34;;;26.03
45701;BMP280;36277;32.852;-116.998;2022-10-31T01:15:59;99806.31;;;26.25
45701;BMP280;36277;32.852;-116.998;2022-10-31T01:18:27;99811.63;;;26.39
45701;BMP280;36277;32.852;-116.998;2022-10-31T01:20:58;99814.16;;;26.67
45701;BMP280;36277;32.852;-116.998;2022-10-31T01:23:25;99816.22;;;26.78
45701;BMP280;36277;32.852;-116.998;2022-10-31T01:25:59;99820.88;;;26.84
45701;BMP280;36277;32.852;-116.998;2022-10-31T01:28:26;99820.00;;;26.96
45701;BMP280;36277;32.852;-116.998;2022-10-31T01:30:52;99815.94;;;26.92
45701;BMP280;36277;32.852;-116.998;2022-10-31T01:33:18;99814.81;;;26.56
45701;BMP280;36277;32.852;-116.998;2022-10-31T01:35:45;99824.88;;;26.18
45701;BMP280;36277;32.852;-116.998;2022-10-31T01:38:11;99827.63;;;26.05
45701;BMP280;36277;32.852;-116.998;2022-10-31T01:40:37;99830.63;;;26.10
45701;BMP280;36277;32.852;-116.998;2022-10-31T01:43:03;99837.84;;;26.24
45701;BMP280;36277;32.852;-116.998;2022-10-31T01:45:30;99846.53;;;26.34
45701;BMP280;36277;32.852;-116.998;2022-10-31T01:47:56;99846.13;;;26.37
45701;BMP280;36277;32.852;-116.998;2022-10-31T01:50:30;99849.53;;;26.52
45701;BMP280;36277;32.852;-116.998;2022-10-31T01:52:58;99847.63;;;26.46
45701;BMP280;36277;32.852;-116.998;2022-10-31T01:55:39;99853.78;;;26.61
45701;BMP280;36277;32.852;-116.998;2022-10-31T01:58:12;99857.16;;;26.63
45701;BMP280;36277;32.852;-116.998;2022-10-31T02:00:41;99862.72;;;26.56
45701;BMP280;36277;32.852;-116.998;2022-10-31T02:03:09;99876.97;;;26.73
45701;BMP280;36277;32.852;-116.998;2022-10-31T02:05:36;99870.34;;;26.80
45701;BMP280;36277;32.852;-116.998;2022-10-31T02:10:36;99880.53;;;26.80
45701;BMP280;36277;32.852;-116.998;2022-10-31T02:13:06;99883.59;;;26.33
45701;BMP280;36277;32.852;-116.998;2022-10-31T02:15:35;99886.13;;;26.02
45701;BMP280;36277;32.852;-116.998;2022-10-31T02:18:03;99888.72;;;25.97
45701;BMP280;36277;32.852;-116.998;2022-10-31T02:21:02;99894.63;;;25.88
45701;BMP280;36277;32.852;-116.998;2022-10-31T02:24:16;99889.34;;;26.19
45701;BMP280;36277;32.852;-116.998;2022-10-31T02:36:00;99905.06;;;26.31
45701;BMP280;36277;32.852;-116.998;2022-10-31T02:39:12;99907.00;;;26.37
45701;BMP280;36277;32.852;-116.998;2022-10-31T02:47:24;99910.00;;;26.55
45701;BMP280;36277;32.852;-116.998;2022-10-31T02:50:25;99918.53;;;26.53
45701;BMP280;36277;32.852;-116.998;2022-10-31T02:52:52;99912.56;;;26.56
45701;BMP280;36277;32.852;-116.998;2022-10-31T02:57:58;99912.13;;;26.66
45701;BMP280;36277;32.852;-116.998;2022-10-31T03:00:29;99917.63;;;26.72
45701;BMP280;36277;32.852;-116.998;2022-10-31T03:03:14;99915.72;;;26.60
45701;BMP280;36277;32.852;-116.998;2022-10-31T03:08:28;99919.78;;;26.64
45701;BMP280;36277;32.852;-116.998;2022-10-31T03:11:05;99911.88;;;26.67
45701;BMP280;36277;32.852;-116.998;2022-10-31T03:13:37;99914.47;;;26.56
45701;BMP280;36277;32.852;-116.998;2022-10-31T03:16:16;99924.03;;;26.73
45701;BMP280;36277;32.852;-116.998;2022-10-31T03:19:05;99925.28;;;26.77
45701;BMP280;36277;32.852;-116.998;2022-10-31T03:21:59;99924.03;;;26.60
45701;BMP280;36277;32.852;-116.998;2022-10-31T03:24:31;99926.16;;;26.64
45701;BMP280;36277;32.852;-116.998;2022-10-31T03:27:00;99919.34;;;26.67
45701;BMP280;36277;32.852;-116.998;2022-10-31T03:29:32;99937.91;;;26.53
45701;BMP280;36277;32.852;-116.998;2022-10-31T03:34:48;99928.50;;;26.74
45701;BMP280;36277;32.852;-116.998;2022-10-31T03:37:18;99920.22;;;26.61
45701;BMP280;36277;32.852;-116.998;2022-10-31T03:39:48;99931.91;;;26.63
45701;BMP280;36277;32.852;-116.998;2022-10-31T03:42:20;99933.41;;;26.59
45701;BMP280;36277;32.852;-116.998;2022-10-31T03:45:03;99931.28;;;26.74
45701;BMP280;36277;32.852;-116.998;2022-10-31T03:47:30;99928.50;;;26.61
45701;BMP280;36277;32.852;-116.998;2022-10-31T03:49:57;99932.97;;;26.62
45701;BMP280;36277;32.852;-116.998;2022-10-31T03:55:19;99923.00;;;26.54
45701;BMP280;36277;32.852;-116.998;2022-10-31T04:00:23;99937.69;;;26.48
45701;BMP280;36277;32.852;-116.998;2022-10-31T04:03:05;99934.69;;;26.63
45701;BMP280;36277;32.852;-116.998;2022-10-31T04:05:33;99928.94;;;26.58
45701;BMP280;36277;32.852;-116.998;2022-10-31T04:08:01;99943.84;;;26.57
45701;BMP280;36277;32.852;-116.998;2022-10-31T04:10:30;99936.63;;;26.62
45701;BMP280;36277;32.852;-116.998;2022-10-31T04:13:07;99939.19;;;26.57
45701;BMP280;36277;32.852;-116.998;2022-10-31T04:15:35;99946.59;;;26.57
45701;BMP280;36277;32.852;-116.998;2022-10-31T04:18:04;99944.06;;;26.55
45701;BMP280;36277;32.852;-116.998;2022-10-31T04:20:33;99946.19;;;26.53
45701;BMP280;36277;32.852;-116.998;2022-10-31T04:23:01;99950.88;;;26.59
45701;BMP280;36277;32.852;-116.998;2022-10-31T04:25:27;99948.34;;;26.45
45701;BMP280;36277;32.852;-116.998;2022-10-31T04:27:54;99950.03;;;26.46
45701;BMP280;36277;32.852;-116.998;2022-10-31T04:30:21;99958.56;;;26.57
45701;BMP280;36277;32.852;-116.998;2022-10-31T04:32:47;99957.47;;;26.58
45701;BMP280;36277;32.852;-116.998;2022-10-31T04:35:14;99958.53;;;26.51
45701;BMP280;36277;32.852;-116.998;2022-10-31T04:37:43;99957.06;;;26.68
45701;BMP280;36277;32.852;-116.998;2022-10-31T04:40:10;99958.13;;;26.67
45701;BMP280;36277;32.852;-116.998;2022-10-31T04:42:37;99975.34;;;26.75
45701;BMP280;36277;32.852;-116.998;2022-10-31T04:45:03;99964.91;;;26.84
45701;BMP280;36277;32.852;-116.998;2022-10-31T04:47:31;99965.09;;;26.89
45701;BMP280;36277;32.852;-116.998;2022-10-31T04:49:59;99961.47;;;26.95
45701;BMP280;36277;32.852;-116.998;2022-10-31T04:52:25;99958.72;;;26.82
45701;BMP280;36277;32.852;-116.998;2022-10-31T04:54:51;99964.03;;;26.96
45701;BMP280;36277;32.852;-116.998;2022-10-31T04:57:18;99975.34;;;26.88
45701;BMP280;36277;32.852;-116.998;2022-10-31T04:59:44;99980.63;;;27.03
45701;BMP280;36277;32.852;-116.998;2022-10-31T05:02:10;99979.81;;;26.76
45701;BMP280;36277;32.852;-116.998;2022-10-31T05:04:36;99970.44;;;26.64
45701;BMP280;36277;32.852;-116.998;2022-10-31T05:07:02;99975.53;;;26.41
45701;BMP280;36277;32.852;-116.998;2022-10-31T05:09:29;99973.00;;;26.40
45701;BMP280;36277;32.852;-116.998;2022-10-31T05:11:55;99982.78;;;26.30
45701;BMP280;36277;32.852;-116.998;2022-10-31T05:14:21;99984.03;;;26.27
45701;BMP280;36277;32.852;-116.998;2022-10-31T05:16:48;99979.38;;;26.21
45701;BMP280;36277;32.852;-116.998;2022-10-31T05:19:14;99980.22;;;26.15
45701;BMP280;36277;32.852;-116.998;2022-10-31T05:21:40;99967.44;;;26.21
45701;BMP280;36277;32.852;-116.998;2022-10-31T05:24:07;99963.97;;;25.86
45701;BMP280;36277;32.852;-116.998;2022-10-31T05:26:33;99974.94;;;25.67
45701;BMP280;36277;32.852;-116.998;2022-10-31T05:28:59;99963.34;;;25.37
45701;BMP280;36277;32.852;-116.998;2022-10-31T05:31:25;99969.94;;;25.03
45701;BMP280;36277;32.852;-116.998;2022-10-31T05:33:52;99968.22;;;24.68
45701;BMP280;36277;32.852;-116.998;2022-10-31T05:36:18;99970.75;;;24.42
45701;BMP280;36277;32.852;-116.998;2022-10-31T05:38:44;99965.72;;;24.04
45701;BMP280;36277;32.852;-116.998;2022-10-31T05:41:10;99964.66;;;23.84
45701;BMP280;36277;32.852;-116.998;2022-10-31T05:43:36;99969.22;;;23.91
45701;BMP280;36277;32.852;-116.998;2022-10-31T05:46:03;99968.75;;;23.38
45701;BMP280;36277;32.852;-116.998;2022-10-31T05:48:29;99973.34;;;23.66
45701;BMP280;36277;32.852;-116.998;2022-10-31T05:50:55;99967.44;;;24.05
45701;BMP280;36277;32.852;-116.998;2022-10-31T05:53:21;99975.97;;;24.30
45701;BMP280;36277;32.852;-116.998;2022-10-31T05:55:48;99969.16;;;24.54
45701;BMP280;36277;32.852;-116.998;2022-10-31T05:58:14;99964.44;;;24.48
45701;BMP280;36277;32.852;-116.998;2022-10-31T06:00:40;99961.13;;;24.11
45701;BMP280;36277;32.852;-116.998;2022-10-31T06:03:08;99961.13;;;23.75
45701;BMP280;36277;32.852;-116.998;2022-10-31T06:05:35;99964.50;;;23.35
45701;BMP280;36277;32.852;-116.998;2022-10-31T06:08:01;99965.00;;;23.60
45701;BMP280;36277;32.852;-116.998;2022-10-31T06:10:28;99966.31;;;23.78
45701;BMP280;36277;32.852;-116.998;2022-10-31T06:12:54;99966.06;;;23.94
45701;BMP280;36277;32.852;-116.998;2022-10-31T06:15:20;99956.03;;;24.08
45701;BMP280;36277;32.852;-116.998;2022-10-31T06:17:57;99957.63;;;24.23
45701;BMP280;36277;32.852;-116.998;2022-10-31T06:20:24;99961.03;;;24.25
45701;BMP280;36277;32.852;-116.998;2022-10-31T06:22:50;99965.00;;;24.16
45701;BMP280;36277;32.852;-116.998;2022-10-31T06:25:16;99955.28;;;23.99
45701;BMP280;36277;32.852;-116.998;2022-10-31T06:27:42;99951.25;;;23.45
45701;BMP280;36277;32.852;-116.998;2022-10-31T06:30:09;99952.81;;;23.33
45701;BMP280;36277;32.852;-116.998;2022-10-31T06:32:35;99947.59;;;23.38
45701;BMP280;36277;32.852;-116.998;2022-10-31T06:35:01;99951.03;;;23.61
45701;BMP280;36277;32.852;-116.998;2022-10-31T06:37:28;99950.44;;;23.80
45701;BMP280;36277;32.852;-116.998;2022-10-31T06:39:54;99953.56;;;23.98
45701;BMP280;36277;32.852;-116.998;2022-10-31T06:42:20;99952.19;;;24.09
45701;BMP280;36277;32.852;-116.998;2022-10-31T06:44:46;99948.84;;;24.13
45701;BMP280;36277;32.852;-116.998;2022-10-31T06:47:12;99944.00;;;24.15
45701;BMP280;36277;32.852;-116.998;2022-10-31T06:49:39;99953.81;;;24.24
45701;BMP280;36277;32.852;-116.998;2022-10-31T06:52:05;99952.75;;;24.25
45701;BMP280;36277;32.852;-116.998;2022-10-31T06:54:31;99954.94;;;24.29
45701;BMP280;36277;32.852;-116.998;2022-10-31T06:56:57;99951.56;;;24.34
45701;BMP280;36277;32.852;-116.998;2022-10-31T06:59:23;99956.69;;;24.37
45701;BMP280;36277;32.852;-116.998;2022-10-31T07:01:50;99956.47;;;24.38
45701;BMP280;36277;32.852;-116.998;2022-10-31T07:04:16;99959.06;;;24.40
45701;BMP280;36277;32.852;-116.998;2022-10-31T07:06:43;99948.88;;;24.40
45701;BMP280;36277;32.852;-116.998;2022-10-31T07:09:09;99956.75;;;24.43
45701;BMP280;36277;32.852;-116.998;2022-10-31T07:11:35;99953.81;;;24.45
45701;BMP280;36277;32.852;-116.998;2022-10-31T07:14:01;99952.75;;;24.46
45701;BMP280;36277;32.852;-116.998;2022-10-31T07:16:28;99951.03;;;24.45
45701;BMP280;36277;32.852;-116.998;2022-10-31T07:18:54;99947.72;;;24.49
45701;BMP280;36277;32.852;-116.998;2022-10-31T07:21:20;99952.19;;;24.50
45701;BMP280;36277;32.852;-116.998;2022-10-31T07:23:49;99947.56;;;24.36
45701;BMP280;36277;32.852;-116.998;2022-10-31T07:26:16;99952.28;;;24.15
45701;BMP280;36277;32.852;-116.998;2022-10-31T07:28:42;99952.91;;;23.96
45701;BMP280;36277;32.852;-116.998;2022-10-31T07:31:08;99955.44;;;23.56
45701;BMP280;36277;32.852;-116.998;2022-10-31T07:33:34;99943.28;;;23.71
45701;BMP280;36277;32.852;-116.998;2022-10-31T07:36:00;99946.44;;;23.83
45701;BMP280;36277;32.852;-116.998;2022-10-31T07:38:26;99949.91;;;23.91
45701;BMP280;36277;32.852;-116.998;2022-10-31T07:40:53;99948.06;;;23.98
45701;BMP280;36277;32.852;-116.998;2022-10-31T07:43:19;99947.00;;;23.99
45701;BMP280;36277;32.852;-116.998;2022-10-31T07:45:53;99956.19;;;24.06
45701;BMP280;36277;32.852;-116.998;2022-10-31T07:48:19;99953.25;;;24.08
45701;BMP280;36277;32.852;-116.998;2022-10-31T07:50:46;99954.75;;;24.10
45701;BMP280;36277;32.852;-116.998;2022-10-31T07:53:13;99949.69;;;24.13
45701;BMP280;36277;32.852;-116.998;2022-10-31T07:55:40;99960.53;;;24.15
45701;BMP280;36277;32.852;-116.998;2022-10-31T07:58:12;99964.63;;;24.19
45701;BMP280;36277;32.852;-116.998;2022-10-31T08:00:41;99960.81;;;24.20
45701;BMP280;36277;32.852;-116.998;2022-10-31T08:03:12;99958.66;;;24.22
45701;BMP280;36277;32.852;-116.998;2022-10-31T08:05:39;99957.00;;;24.21
45701;BMP280;36277;32.852;-116.998;2022-10-31T08:08:07;99953.16;;;24.22
45701;BMP280;36277;32.852;-116.998;2022-10-31T08:10:34;99945.53;;;24.24
45701;BMP280;36277;32.852;-116.998;2022-10-31T08:13:06;99956.41;;;24.25
45701;BMP280;36277;32.852;-116.998;2022-10-31T08:15:33;99945.53;;;24.24
45701;BMP280;36277;32.852;-116.998;2022-10-31T08:18:03;99951.94;;;24.24
45701;BMP280;36277;32.852;-116.998;2022-10-31T08:20:29;99952.75;;;24.25
45701;BMP280;36277;32.852;-116.998;2022-10-31T08:23:00;99957.06;;;24.27
45701;BMP280;36277;32.852;-116.998;2022-10-31T08:25:28;99948.97;;;24.26
45701;BMP280;36277;32.852;-116.998;2022-10-31T08:27:56;99947.25;;;24.25
45701;BMP280;36277;32.852;-116.998;2022-10-31T08:30:25;99948.97;;;24.26
45701;BMP280;36277;32.852;-116.998;2022-10-31T08:33:10;99947.25;;;24.25
45701;BMP280;36277;32.852;-116.998;2022-10-31T08:35:37;99938.13;;;24.24
45701;BMP280;36277;32.852;-116.998;2022-10-31T08:38:04;99940.91;;;24.24
45701;BMP280;36277;32.852;-116.998;2022-10-31T08:40:32;99942.59;;;24.25
45701;BMP280;36277;32.852;-116.998;2022-10-31T08:43:05;99951.72;;;24.26
45701;BMP280;36277;32.852;-116.998;2022-10-31T08:45:33;99951.06;;;24.24
45701;BMP280;36277;32.852;-116.998;2022-10-31T08:48:01;99943.84;;;24.23
45701;BMP280;36277;32.852;-116.998;2022-10-31T08:50:29;99944.50;;;24.25
45701;BMP280;36277;32.852;-116.998;2022-10-31T08:53:16;99952.53;;;24.20
45701;BMP280;36277;32.852;-116.998;2022-10-31T08:55:43;99950.63;;;24.20
45701;BMP280;36277;32.852;-116.998;2022-10-31T08:58:15;99946.81;;;24.21
45701;BMP280;36277;32.852;-116.998;2022-10-31T09:00:42;99950.41;;;24.22
45701;BMP280;36277;32.852;-116.998;2022-10-31T09:03:13;99946.59;;;24.23
45701;BMP280;36277;32.852;-116.998;2022-10-31T09:05:39;99945.31;;;24.19
45701;BMP280;36277;32.852;-116.998;2022-10-31T09:08:06;99931.31;;;24.20
45701;BMP280;36277;32.852;-116.998;2022-10-31T09:10:34;99931.53;;;24.19
45701;BMP280;36277;32.852;-116.998;2022-10-31T09:15:36;99938.09;;;24.18
45701;BMP280;36277;32.852;-116.998;2022-10-31T09:18:04;99935.34;;;24.18
45701;BMP280;36277;32.852;-116.998;2022-10-31T09:20:32;99916.03;;;24.18
45701;BMP280;36277;32.852;-116.998;2022-10-31T09:23:10;99927.72;;;24.20
45701;BMP280;36277;32.852;-116.998;2022-10-31T09:25:37;99921.72;;;24.16
45701;BMP280;36277;32.852;-116.998;2022-10-31T09:28:05;99921.72;;;24.16
45701;BMP280;36277;32.852;-116.998;2022-10-31T09:30:33;99922.78;;;24.15
45701;BMP280;36277;32.852;-116.998;2022-10-31T09:33:02;99924.03;;;24.13
45701;BMP280;36277;32.852;-116.998;2022-10-31T09:35:29;99922.13;;;24.13
45701;BMP280;36277;32.852;-116.998;2022-10-31T09:37:57;99926.41;;;24.16
45701;BMP280;36277;32.852;-116.998;2022-10-31T09:40:37;99909.19;;;24.14
45701;BMP280;36277;32.852;-116.998;2022-10-31T09:49:14;99898.97;;;24.08
45701;BMP280;36277;32.852;-116.998;2022-10-31T09:51:59;99905.53;;;24.07
45701;BMP280;36277;32.852;-116.998;2022-10-31T09:55:35;99899.34;;;24.05
45701;BMP280;36277;32.852;-116.998;2022-10-31T09:57:42;99899.56;;;24.04
45701;BMP280;36277;32.852;-116.998;2022-10-31T10:00:21;99900.00;;;24.07
45701;BMP280;36277;32.852;-116.998;2022-10-31T10:06:19;99897.66;;;24.04
45701;BMP280;36277;32.852;-116.998;2022-10-31T10:08:47;99900.41;;;24.04
45701;BMP280;36277;32.852;-116.998;2022-10-31T10:14:32;99905.09;;;24.04
45701;BMP280;36277;32.852;-116.998;2022-10-31T10:25:16;99900.81;;;24.01
45701;BMP280;36277;32.852;-116.998;2022-10-31T10:28:07;99901.19;;;23.98
45701;BMP280;36277;32.852;-116.998;2022-10-31T10:31:03;99906.91;;;23.97
45701;BMP280;36277;32.852;-116.998;2022-10-31T10:36:03;99900.34;;;23.98
45701;BMP280;36277;32.852;-116.998;2022-10-31T10:39:14;99897.78;;;23.96
45701;BMP280;36277;32.852;-116.998;2022-10-31T10:41:21;99894.19;;;23.96
45701;BMP280;36277;32.852;-116.998;2022-10-31T10:43:52;99891.44;;;23.96
45701;BMP280;36277;32.852;-116.998;2022-10-31T10:46:42;99896.50;;;23.92
45701;BMP280;36277;32.852;-116.998;2022-10-31T10:49:35;99891.16;;;23.91
45701;BMP280;36277;32.852;-116.998;2022-10-31T10:53:12;99892.88;;;23.92
45701;BMP280;36277;32.852;-116.998;2022-10-31T10:55:24;99904.09;;;23.90
45701;BMP280;36277;32.852;-116.998;2022-10-31T10:57:59;99902.41;;;23.89
45701;BMP280;36277;32.852;-116.998;2022-10-31T11:00:40;99898.59;;;23.90
45701;BMP280;36277;32.852;-116.998;2022-10-31T11:03:07;99900.69;;;23.88
45701;BMP280;36277;32.852;-116.998;2022-10-31T11:05:54;99905.53;;;23.86
45701;BMP280;36277;32.852;-116.998;2022-10-31T11:08:36;99903.84;;;23.85
45701;BMP280;36277;32.852;-116.998;2022-10-31T11:13:49;99894.91;;;23.83
45701;BMP280;36277;32.852;-116.998;2022-10-31T11:18:52;99888.75;;;23.81
45701;BMP280;36277;32.852;-116.998;2022-10-31T11:21:23;99890.44;;;23.82
45701;BMP280;36277;32.852;-116.998;2022-10-31T11:23:50;99882.41;;;23.81
45701;BMP280;36277;32.852;-116.998;2022-10-31T11:26:27;99890.00;;;23.79
45701;BMP280;36277;32.852;-116.998;2022-10-31T11:28:58;99890.84;;;23.79
45701;BMP280;36277;32.852;-116.998;2022-10-31T11:31:25;99887.25;;;23.79
45701;BMP280;36277;32.852;-116.998;2022-10-31T11:34:03;99893.59;;;23.79
45701;BMP280;36277;32.852;-116.998;2022-10-31T11:36:37;99891.19;;;23.76
45701;BMP280;36277;32.852;-116.998;2022-10-31T11:39:12;99887.41;;;23.77
45701;BMP280;36277;32.852;-116.998;2022-10-31T11:41:41;99892.25;;;23.75
45701;BMP280;36277;32.852;-116.998;2022-10-31T11:44:17;99906.03;;;23.75
45701;BMP280;36277;32.852;-116.998;2022-10-31T11:47:04;99896.94;;;23.75
45701;BMP280;36277;32.852;-116.998;2022-10-31T11:49:38;99889.22;;;23.70
45701;BMP280;36277;32.852;-116.998;2022-10-31T11:52:14;99890.94;;;23.71
45701;BMP280;36277;32.852;-116.998;2022-10-31T11:54:59;99906.84;;;23.69
45701;BMP280;36277;32.852;-116.998;2022-10-31T11:57:33;99901.72;;;23.66
45701;BMP280;36277;32.852;-116.998;2022-10-31T12:05:59;99894.88;;;23.62
45701;BMP280;36277;32.852;-116.998;2022-10-31T12:08:35;99893.19;;;23.61
45701;BMP280;36277;32.852;-116.998;2022-10-31T12:13:38;99890.44;;;23.61
45701;BMP280;36277;32.852;-116.998;2022-10-31T12:18:45;99880.47;;;23.60
45701;BMP280;36277;32.852;-116.998;2022-10-31T12:21:30;99887.19;;;23.58
45701;BMP280;36277;32.852;-116.998;2022-10-31T12:24:18;99883.81;;;23.56
45701;BMP280;36277;32.852;-116.998;2022-10-31T12:27:17;99885.41;;;23.50
45701;BMP280;36277;32.852;-116.998;2022-10-31T12:37:54;99873.94;;;23.47
45701;BMP280;36277;32.852;-116.998;2022-10-31T12:46:02;99867.13;;;23.43
45701;BMP280;36277;32.852;-116.998;2022-10-31T12:51:33;99873.91;;;23.40
45701;BMP280;36277;32.852;-116.998;2022-10-31T12:54:24;99875.78;;;23.40
45701;BMP280;36277;32.852;-116.998;2022-10-31T12:59:38;99866.00;;;23.37
45701;BMP280;36277;32.852;-116.998;2022-10-31T13:02:23;99860.91;;;23.34
45701;BMP280;36277;32.852;-116.998;2022-10-31T13:04:57;99858.81;;;23.36
45701;BMP280;36277;32.852;-116.998;2022-10-31T13:07:41;99859.84;;;23.35
45701;BMP280;36277;32.852;-116.998;2022-10-31T13:10:19;99858.16;;;23.34
45701;BMP280;36277;32.852;-116.998;2022-10-31T13:12:49;99859.38;;;23.32
45701;BMP280;36277;32.852;-116.998;2022-10-31T13:15:27;99859.38;;;23.32
45701;BMP280;36277;32.852;-116.998;2022-10-31T13:17:57;99863.38;;;23.29
45701;BMP280;36277;32.852;-116.998;2022-10-31T13:20:43;99866.34;;;23.28
45701;BMP280;36277;32.852;-116.998;2022-10-31T13:23:31;99860.16;;;23.26
45701;BMP280;36277;32.852;-116.998;2022-10-31T13:26:06;99860.16;;;23.26
45701;BMP280;36277;32.852;-116.998;2022-10-31T13:28:45;99855.88;;;23.23
45701;BMP280;36277;32.852;-116.998;2022-10-31T13:31:12;99847.63;;;23.23
45701;BMP280;36277;32.852;-116.998;2022-10-31T13:33:50;99858.47;;;23.25
45701;BMP280;36277;32.852;-116.998;2022-10-31T13:36:41;99853.78;;;23.25
45701;BMP280;36277;32.852;-116.998;2022-10-31T13:39:50;99860.00;;;23.13
45701;BMP280;36277;32.852;-116.998;2022-10-31T13:45:14;99851.63;;;23.21
45701;BMP280;36277;32.852;-116.998;2022-10-31T13:47:41;99851.19;;;23.17
45701;BMP280;36277;32.852;-116.998;2022-10-31T13:50:23;99841.66;;;23.20
45701;BMP280;36277;32.852;-116.998;2022-10-31T13:52:50;99837.22;;;23.19
45701;BMP280;36277;32.852;-116.998;2022-10-31T14:01:48;99837.81;;;23.14
45701;BMP280;36277;32.852;-116.998;2022-10-31T14:04:37;99837.97;;;23.13
45701;BMP280;36277;32.852;-116.998;2022-10-31T14:09:39;99832.09;;;23.16
45701;BMP280;36277;32.852;-116.998;2022-10-31T14:12:36;99825.25;;;23.12
45701;BMP280;36277;32.852;-116.998;2022-10-31T14:15:21;99827.19;;;23.11
45701;BMP280;36277;32.852;-116.998;2022-10-31T14:20:39;99831.63;;;23.12
45701;BMP280;36277;32.852;-116.998;2022-10-31T14:26:05;99828.97;;;23.04
45701;BMP280;36277;32.852;-116.998;2022-10-31T14:28:34;99839.63;;;23.07
45701;BMP280;36277;32.852;-116.998;2022-10-31T14:31:01;99839.63;;;23.07
45701;BMP280;36277;32.852;-116.998;2022-10-31T14:33:29;99836.16;;;23.05
45701;BMP280;36277;32.852;-116.998;2022-10-31T14:36:07;99847.56;;;23.02
45701;BMP280;36277;32.852;-116.998;2022-10-31T14:52:25;99852.13;;;22.96
45701;BMP280;36277;32.852;-116.998;2022-10-31T14:54:56;99850.69;;;22.99
45701;BMP280;36277;32.852;-116.998;2022-10-31T14:57:28;99851.75;;;22.98
45701;BMP280;36277;32.852;-116.998;2022-10-31T15:00:08;99859.81;;;23.00
45701;BMP280;36277;32.852;-116.998;2022-10-31T15:02:45;99864.06;;;23.02
45701;BMP280;36277;32.852;-116.998;2022-10-31T15:05:14;99862.56;;;23.00
45701;BMP280;36277;32.852;-116.998;2022-10-31T15:07:54;99864.47;;;22.99
45701;BMP280;36277;32.852;-116.998;2022-10-31T15:10:29;99866.53;;;22.98
45701;BMP280;36277;32.852;-116.998;2022-10-31T15:12:56;99878.22;;;22.99
45701;BMP280;36277;32.852;-116.998;2022-10-31T15:15:33;99880.13;;;22.99
45701;BMP280;36277;32.852;-116.998;2022-10-31T15:18:01;99873.38;;;23.01
45701;BMP280;36277;32.852;-116.998;2022-10-31T15:20:41;99883.34;;;23.02
45701;BMP280;36277;32.852;-116.998;2022-10-31T15:23:26;99878.88;;;23.01
45701;BMP280;36277;32.852;-116.998;2022-10-31T15:26:04;99880.59;;;23.02
45701;BMP280;36277;32.852;-116.998;2022-10-31T15:28:31;99882.69;;;23.00
45701;BMP280;36277;32.852;-116.998;2022-10-31T15:31:00;99887.81;;;23.03
45701;BMP280;36277;32.852;-116.998;2022-10-31T15:33:31;99893.13;;;23.05
45701;BMP280;36277;32.852;-116.998;2022-10-31T15:36:02;99892.94;;;23.06
45701;BMP280;36277;32.852;-116.998;2022-10-31T15:38:29;99897.59;;;23.06
45701;BMP280;36277;32.852;-116.998;2022-10-31T15:41:04;99887.41;;;23.06
45701;BMP280;36277;32.852;-116.998;2022-10-31T15:43:37;99885.38;;;23.08
45701;BMP280;36277;32.852;-116.998;2022-10-31T15:46:07;99889.84;;;23.09
45701;BMP280;36277;32.852;-116.998;2022-10-31T15:48:35;99886.22;;;23.09
45701;BMP280;36277;32.852;-116.998;2022-10-31T15:51:02;99894.28;;;23.10
45701;BMP280;36277;32.852;-116.998;2022-10-31T15:53:37;99887.53;;;23.13
45701;BMP280;36277;32.852;-116.998;2022-10-31T15:56:12;99892.19;;;23.12
45701;BMP280;36277;32.852;-116.998;2022-10-31T15:58:47;99883.94;;;23.12
45701;BMP280;36277;32.852;-116.998;2022-10-31T16:01:24;99883.72;;;23.14